sensor_id;sensor_type;location;lat;lon;timestamp;P1;durP1;ratioP1;P2;durP2;ratioP2
19985;SDS011;10154;52.474;10.768;2024-02-21T00:01:32;24.97;;;6.60;;
19985;SDS011;10154;52.474;10.768;2024-02-21T00:03:58;24.33;;;7.23;;
19985;SDS011;10154;52.474;10.768;2024-02-21T00:06:23;22.77;;;6.97;;
19985;SDS011;10154;52.474;10.768;2024-02-21T00:08:48;27.80;;;7.03;;
19985;SDS011;10154;52.474;10.768;2024-02-21T00:11:14;25.93;;;6.77;;
19985;SDS011;10154;52.474;10.768;2024-02-21T00:13:39;32.17;;;7.20;;
19985;SDS011;10154;52.474;10.768;2024-02-21T00:16:04;26.53;;;6.63;;
19985;SDS011;10154;52.474;10.768;2024-02-21T00:18:30;27.50;;;6.70;;
19985;SDS011;10154;52.474;10.768;2024-02-21T00:20:55;22.87;;;6.43;;
19985;SDS011;10154;52.474;10.768;2024-02-21T00:23:21;26.13;;;5.83;;
19985;SDS011;10154;52.474;10.768;2024-02-21T00:25:46;25.33;;;6.93;;
19985;SDS011;10154;52.474;10.768;2024-02-21T00:28:11;28.30;;;6.23;;
19985;SDS011;10154;52.474;10.768;2024-02-21T00:30:36;22.20;;;6.50;;
19985;SDS011;10154;52.474;10.768;2024-02-21T00:33:03;30.20;;;6.63;;
19985;SDS011;10154;52.474;10.768;2024-02-21T00:35:28;27.23;;;7.30;;
19985;SDS011;10154;52.474;10.768;2024-02-21T00:37:53;24.07;;;7.13;;
19985;SDS011;10154;52.474;10.768;2024-02-21T00:40:19;26.07;;;7.83;;
19985;SDS011;10154;52.474;10.768;2024-02-21T00:42:46;24.60;;;7.17;;
19985;SDS011;10154;52.474;10.768;2024-02-21T00:45:12;25.07;;;7.90;;
19985;SDS011;10154;52.474;10.768;2024-02-21T00:47:37;20.10;;;6.30;;
19985;SDS011;10154;52.474;10.768;2024-02-21T00:50:02;26.67;;;6.60;;
19985;SDS011;10154;52.474;10.768;2024-02-21T00:52:28;30.60;;;8.07;;
19985;SDS011;10154;52.474;10.768;2024-02-21T00:54:53;32.93;;;8.33;;
19985;SDS011;10154;52.474;10.768;2024-02-21T00:57:19;25.87;;;7.13;;
19985;SDS011;10154;52.474;10.768;2024-02-21T00:59:44;26.57;;;8.27;;
19985;SDS011;10154;52.474;10.768;2024-02-21T01:02:09;25.00;;;8.17;;
19985;SDS011;10154;52.474;10.768;2024-02-21T01:04:35;31.23;;;8.37;;
19985;SDS011;10154;52.474;10.768;2024-02-21T01:07:00;28.97;;;9.03;;
19985;SDS011;10154;52.474;10.768;2024-02-21T01:09:25;32.80;;;8.90;;
19985;SDS011;10154;52.474;10.768;2024-02-21T01:11:51;19.60;;;7.00;;
19985;SDS011;10154;52.474;10.768;2024-02-21T01:14:16;28.60;;;9.23;;
19985;SDS011;10154;52.474;10.768;2024-02-21T01:16:41;30.30;;;8.60;;
19985;SDS011;10154;52.474;10.768;2024-02-21T01:19:07;35.50;;;9.90;;
19985;SDS011;10154;52.474;10.768;2024-02-21T01:21:32;30.20;;;9.57;;
19985;SDS011;10154;52.474;10.768;2024-02-21T01:23:57;29.93;;;9.37;;
19985;SDS011;10154;52.474;10.768;2024-02-21T01:26:23;30.13;;;9.70;;
19985;SDS011;10154;52.474;10.768;2024-02-21T01:28:48;30.73;;;9.57;;
19985;SDS011;10154;52.474;10.768;2024-02-21T01:31:13;23.07;;;7.87;;
19985;SDS011;10154;52.474;10.768;2024-02-21T01:33:40;30.97;;;11.00;;
19985;SDS011;10154;52.474;10.768;2024-02-21T01:36:06;30.73;;;10.90;;
19985;SDS011;10154;52.474;10.768;2024-02-21T01:38:32;28.37;;;9.23;;
19985;SDS011;10154;52.474;10.768;2024-02-21T01:40:57;30.07;;;10.67;;
19985;SDS011;10154;52.474;10.768;2024-02-21T01:43:22;33.73;;;11.10;;
19985;SDS011;10154;52.474;10.768;2024-02-21T01:45:52;31.33;;;11.20;;
19985;SDS011;10154;52.474;10.768;2024-02-21T01:48:18;30.07;;;9.80;;
19985;SDS011;10154;52.474;10.768;2024-02-21T01:50:47;31.77;;;11.10;;
19985;SDS011;10154;52.474;10.768;2024-02-21T01:53:14;32.60;;;11.37;;
19985;SDS011;10154;52.474;10.768;2024-02-21T01:55:46;32.77;;;11.33;;
19985;SDS011;10154;52.474;10.768;2024-02-21T01:58:15;35.40;;;12.83;;
19985;SDS011;10154;52.474;10.768;2024-02-21T02:00:41;31.00;;;11.47;;
19985;SDS011;10154;52.474;10.768;2024-02-21T02:03:09;34.63;;;12.53;;
19985;SDS011;10154;52.474;10.768;2024-02-21T02:05:41;34.13;;;11.17;;
19985;SDS011;10154;52.474;10.768;2024-02-21T02:08:08;27.43;;;11.40;;
19985;SDS011;10154;52.474;10.768;2024-02-21T02:10:33;36.03;;;12.00;;
19985;SDS011;10154;52.474;10.768;2024-02-21T02:12:58;33.07;;;10.70;;
19985;SDS011;10154;52.474;10.768;2024-02-21T02:15:24;31.53;;;11.93;;
19985;SDS011;10154;52.474;10.768;2024-02-21T02:17:49;34.33;;;13.33;;
19985;SDS011;10154;52.474;10.768;2024-02-21T02:20:15;35.30;;;12.40;;
19985;SDS011;10154;52.474;10.768;2024-02-21T02:22:41;35.33;;;14.13;;
19985;SDS011;10154;52.474;10.768;2024-02-21T02:25:08;34.17;;;13.47;;
19985;SDS011;10154;52.474;10.768;2024-02-21T02:27:40;34.53;;;12.20;;
19985;SDS011;10154;52.474;10.768;2024-02-21T02:30:07;37.77;;;14.83;;
19985;SDS011;10154;52.474;10.768;2024-02-21T02:32:32;34.43;;;12.87;;
19985;SDS011;10154;52.474;10.768;2024-02-21T02:34:58;35.77;;;12.20;;
19985;SDS011;10154;52.474;10.768;2024-02-21T02:37:23;35.03;;;12.40;;
19985;SDS011;10154;52.474;10.768;2024-02-21T02:39:48;39.60;;;13.57;;
19985;SDS011;10154;52.474;10.768;2024-02-21T02:42:14;33.47;;;11.87;;
19985;SDS011;10154;52.474;10.768;2024-02-21T02:44:39;37.77;;;12.23;;
19985;SDS011;10154;52.474;10.768;2024-02-21T02:47:04;39.00;;;14.00;;
19985;SDS011;10154;52.474;10.768;2024-02-21T02:49:30;34.40;;;12.97;;
19985;SDS011;10154;52.474;10.768;2024-02-21T02:51:55;43.80;;;13.87;;
19985;SDS011;10154;52.474;10.768;2024-02-21T02:54:20;28.87;;;11.07;;
19985;SDS011;10154;52.474;10.768;2024-02-21T02:56:46;39.07;;;11.97;;
19985;SDS011;10154;52.474;10.768;2024-02-21T02:59:11;35.20;;;13.07;;
19985;SDS011;10154;52.474;10.768;2024-02-21T03:01:37;33.83;;;12.17;;
19985;SDS011;10154;52.474;10.768;2024-02-21T03:04:03;32.60;;;13.40;;
19985;SDS011;10154;52.474;10.768;2024-02-21T03:06:28;34.63;;;12.07;;
19985;SDS011;10154;52.474;10.768;2024-02-21T03:08:54;33.50;;;12.30;;
19985;SDS011;10154;52.474;10.768;2024-02-21T03:11:20;33.50;;;13.13;;
19985;SDS011;10154;52.474;10.768;2024-02-21T03:13:53;31.57;;;11.40;;
19985;SDS011;10154;52.474;10.768;2024-02-21T03:16:19;34.37;;;12.97;;
19985;SDS011;10154;52.474;10.768;2024-02-21T03:18:44;33.50;;;11.67;;
19985;SDS011;10154;52.474;10.768;2024-02-21T03:21:09;32.63;;;11.23;;
19985;SDS011;10154;52.474;10.768;2024-02-21T03:23:35;28.50;;;12.63;;
19985;SDS011;10154;52.474;10.768;2024-02-21T03:26:00;36.43;;;13.00;;
19985;SDS011;10154;52.474;10.768;2024-02-21T03:28:25;31.83;;;12.47;;
19985;SDS011;10154;52.474;10.768;2024-02-21T03:30:51;29.37;;;11.33;;
19985;SDS011;10154;52.474;10.768;2024-02-21T03:33:16;28.00;;;10.83;;
19985;SDS011;10154;52.474;10.768;2024-02-21T03:35:41;36.63;;;12.23;;
19985;SDS011;10154;52.474;10.768;2024-02-21T03:38:07;29.47;;;12.07;;
19985;SDS011;10154;52.474;10.768;2024-02-21T03:40:32;30.70;;;12.70;;
19985;SDS011;10154;52.474;10.768;2024-02-21T03:42:57;28.10;;;11.67;;
19985;SDS011;10154;52.474;10.768;2024-02-21T03:45:23;32.03;;;12.00;;
19985;SDS011;10154;52.474;10.768;2024-02-21T03:47:48;26.37;;;10.90;;
19985;SDS011;10154;52.474;10.768;2024-02-21T03:50:13;30.03;;;12.63;;
19985;SDS011;10154;52.474;10.768;2024-02-21T03:52:39;32.37;;;12.43;;
19985;SDS011;10154;52.474;10.768;2024-02-21T03:55:04;35.63;;;12.70;;
19985;SDS011;10154;52.474;10.768;2024-02-21T03:57:30;33.73;;;13.37;;
19985;SDS011;10154;52.474;10.768;2024-02-21T03:59:55;31.93;;;12.43;;
19985;SDS011;10154;52.474;10.768;2024-02-21T04:02:20;30.77;;;12.40;;
19985;SDS011;10154;52.474;10.768;2024-02-21T04:04:46;29.70;;;12.83;;
19985;SDS011;10154;52.474;10.768;2024-02-21T04:07:13;34.37;;;12.97;;
19985;SDS011;10154;52.474;10.768;2024-02-21T04:09:39;34.10;;;12.73;;
19985;SDS011;10154;52.474;10.768;2024-02-21T04:12:05;35.13;;;12.20;;
19985;SDS011;10154;52.474;10.768;2024-02-21T04:14:30;37.47;;;12.40;;
19985;SDS011;10154;52.474;10.768;2024-02-21T04:16:55;32.73;;;13.80;;
19985;SDS011;10154;52.474;10.768;2024-02-21T04:19:21;31.00;;;11.93;;
19985;SDS011;10154;52.474;10.768;2024-02-21T04:21:46;23.63;;;8.50;;
19985;SDS011;10154;52.474;10.768;2024-02-21T04:24:12;29.33;;;12.63;;
19985;SDS011;10154;52.474;10.768;2024-02-21T04:26:37;35.93;;;12.97;;
19985;SDS011;10154;52.474;10.768;2024-02-21T04:29:02;33.70;;;12.73;;
19985;SDS011;10154;52.474;10.768;2024-02-21T04:31:28;31.63;;;12.70;;
19985;SDS011;10154;52.474;10.768;2024-02-21T04:33:53;22.57;;;9.13;;
19985;SDS011;10154;52.474;10.768;2024-02-21T04:36:18;39.07;;;14.20;;
19985;SDS011;10154;52.474;10.768;2024-02-21T04:38:44;28.53;;;11.43;;
19985;SDS011;10154;52.474;10.768;2024-02-21T04:41:10;31.40;;;12.63;;
19985;SDS011;10154;52.474;10.768;2024-02-21T04:43:35;32.77;;;13.57;;
19985;SDS011;10154;52.474;10.768;2024-02-21T04:46:00;31.77;;;12.67;;
19985;SDS011;10154;52.474;10.768;2024-02-21T04:48:26;30.33;;;12.07;;
19985;SDS011;10154;52.474;10.768;2024-02-21T04:50:51;31.07;;;12.33;;
19985;SDS011;10154;52.474;10.768;2024-02-21T04:53:16;29.23;;;12.27;;
19985;SDS011;10154;52.474;10.768;2024-02-21T04:55:42;33.27;;;11.67;;
19985;SDS011;10154;52.474;10.768;2024-02-21T04:58:07;29.30;;;13.10;;
19985;SDS011;10154;52.474;10.768;2024-02-21T05:00:33;34.77;;;12.80;;
19985;SDS011;10154;52.474;10.768;2024-02-21T05:02:59;28.97;;;12.93;;
19985;SDS011;10154;52.474;10.768;2024-02-21T05:05:24;32.13;;;12.33;;
19985;SDS011;10154;52.474;10.768;2024-02-21T05:07:49;28.03;;;11.03;;
19985;SDS011;10154;52.474;10.768;2024-02-21T05:10:15;38.43;;;13.30;;
19985;SDS011;10154;52.474;10.768;2024-02-21T05:12:40;26.37;;;12.67;;
19985;SDS011;10154;52.474;10.768;2024-02-21T05:15:05;37.10;;;12.07;;
19985;SDS011;10154;52.474;10.768;2024-02-21T05:17:31;23.03;;;7.63;;
19985;SDS011;10154;52.474;10.768;2024-02-21T05:19:56;29.13;;;12.63;;
19985;SDS011;10154;52.474;10.768;2024-02-21T05:22:22;28.53;;;11.73;;
19985;SDS011;10154;52.474;10.768;2024-02-21T05:24:47;33.80;;;12.37;;
19985;SDS011;10154;52.474;10.768;2024-02-21T05:27:12;27.57;;;12.47;;
19985;SDS011;10154;52.474;10.768;2024-02-21T05:29:38;28.23;;;11.40;;
19985;SDS011;10154;52.474;10.768;2024-02-21T05:32:03;26.37;;;11.87;;
19985;SDS011;10154;52.474;10.768;2024-02-21T05:34:29;31.43;;;12.50;;
19985;SDS011;10154;52.474;10.768;2024-02-21T05:36:54;34.77;;;13.43;;
19985;SDS011;10154;52.474;10.768;2024-02-21T05:39:19;30.80;;;12.80;;
19985;SDS011;10154;52.474;10.768;2024-02-21T05:41:47;25.97;;;12.00;;
19985;SDS011;10154;52.474;10.768;2024-02-21T05:44:12;29.63;;;11.23;;
19985;SDS011;10154;52.474;10.768;2024-02-21T05:46:38;30.40;;;13.03;;
19985;SDS011;10154;52.474;10.768;2024-02-21T05:49:03;29.70;;;12.33;;
19985;SDS011;10154;52.474;10.768;2024-02-21T05:51:32;31.10;;;12.97;;
19985;SDS011;10154;52.474;10.768;2024-02-21T05:53:58;16.87;;;7.17;;
19985;SDS011;10154;52.474;10.768;2024-02-21T05:56:23;29.33;;;10.93;;
19985;SDS011;10154;52.474;10.768;2024-02-21T05:58:48;28.00;;;12.63;;
19985;SDS011;10154;52.474;10.768;2024-02-21T06:01:14;30.33;;;12.50;;
19985;SDS011;10154;52.474;10.768;2024-02-21T06:03:39;28.50;;;12.73;;
19985;SDS011;10154;52.474;10.768;2024-02-21T06:06:05;26.17;;;10.13;;
19985;SDS011;10154;52.474;10.768;2024-02-21T06:08:30;28.63;;;11.27;;
19985;SDS011;10154;52.474;10.768;2024-02-21T06:10:56;30.77;;;13.37;;
19985;SDS011;10154;52.474;10.768;2024-02-21T06:13:21;27.60;;;13.20;;
19985;SDS011;10154;52.474;10.768;2024-02-21T06:15:48;32.93;;;13.13;;
19985;SDS011;10154;52.474;10.768;2024-02-21T06:18:15;35.37;;;12.93;;
19985;SDS011;10154;52.474;10.768;2024-02-21T06:20:40;29.57;;;12.50;;
19985;SDS011;10154;52.474;10.768;2024-02-21T06:23:08;26.97;;;9.47;;
19985;SDS011;10154;52.474;10.768;2024-02-21T06:25:33;27.80;;;11.60;;
19985;SDS011;10154;52.474;10.768;2024-02-21T06:27:58;30.07;;;10.30;;
19985;SDS011;10154;52.474;10.768;2024-02-21T06:30:24;27.93;;;12.03;;
19985;SDS011;10154;52.474;10.768;2024-02-21T06:32:49;39.10;;;13.30;;
19985;SDS011;10154;52.474;10.768;2024-02-21T06:35:14;27.63;;;12.50;;
19985;SDS011;10154;52.474;10.768;2024-02-21T06:37:40;34.23;;;11.53;;
19985;SDS011;10154;52.474;10.768;2024-02-21T06:40:05;29.30;;;12.07;;
19985;SDS011;10154;52.474;10.768;2024-02-21T06:42:31;33.00;;;13.70;;
19985;SDS011;10154;52.474;10.768;2024-02-21T06:44:56;34.07;;;12.40;;
19985;SDS011;10154;52.474;10.768;2024-02-21T06:47:22;31.10;;;13.63;;
19985;SDS011;10154;52.474;10.768;2024-02-21T06:49:50;22.37;;;8.63;;
19985;SDS011;10154;52.474;10.768;2024-02-21T06:52:19;27.80;;;12.37;;
19985;SDS011;10154;52.474;10.768;2024-02-21T06:54:48;29.30;;;12.60;;
19985;SDS011;10154;52.474;10.768;2024-02-21T06:57:14;23.07;;;10.67;;
19985;SDS011;10154;52.474;10.768;2024-02-21T06:59:40;26.30;;;11.70;;
19985;SDS011;10154;52.474;10.768;2024-02-21T07:02:06;33.53;;;13.47;;
19985;SDS011;10154;52.474;10.768;2024-02-21T07:04:31;27.80;;;12.17;;
19985;SDS011;10154;52.474;10.768;2024-02-21T07:06:57;26.40;;;10.00;;
19985;SDS011;10154;52.474;10.768;2024-02-21T07:09:22;23.57;;;11.47;;
19985;SDS011;10154;52.474;10.768;2024-02-21T07:11:47;25.83;;;11.83;;
19985;SDS011;10154;52.474;10.768;2024-02-21T07:14:16;27.13;;;10.57;;
19985;SDS011;10154;52.474;10.768;2024-02-21T07:16:41;32.57;;;12.40;;
19985;SDS011;10154;52.474;10.768;2024-02-21T07:19:06;28.63;;;11.73;;
19985;SDS011;10154;52.474;10.768;2024-02-21T07:21:32;27.33;;;11.93;;
19985;SDS011;10154;52.474;10.768;2024-02-21T07:23:57;35.77;;;13.97;;
19985;SDS011;10154;52.474;10.768;2024-02-21T07:26:23;30.03;;;12.07;;
19985;SDS011;10154;52.474;10.768;2024-02-21T07:28:48;17.30;;;7.47;;
19985;SDS011;10154;52.474;10.768;2024-02-21T07:31:13;24.43;;;11.47;;
19985;SDS011;10154;52.474;10.768;2024-02-21T07:33:39;30.27;;;13.10;;
19985;SDS011;10154;52.474;10.768;2024-02-21T07:36:07;23.20;;;7.97;;
19985;SDS011;10154;52.474;10.768;2024-02-21T07:38:36;26.13;;;12.43;;
19985;SDS011;10154;52.474;10.768;2024-02-21T07:41:01;27.90;;;13.33;;
19985;SDS011;10154;52.474;10.768;2024-02-21T07:43:27;25.23;;;11.97;;
19985;SDS011;10154;52.474;10.768;2024-02-21T07:45:53;24.70;;;8.30;;
19985;SDS011;10154;52.474;10.768;2024-02-21T07:48:18;24.67;;;12.17;;
19985;SDS011;10154;52.474;10.768;2024-02-21T07:50:44;23.60;;;10.63;;
19985;SDS011;10154;52.474;10.768;2024-02-21T07:53:09;23.00;;;11.20;;
19985;SDS011;10154;52.474;10.768;2024-02-21T07:55:34;31.63;;;11.43;;
19985;SDS011;10154;52.474;10.768;2024-02-21T07:58:00;25.50;;;9.73;;
19985;SDS011;10154;52.474;10.768;2024-02-21T08:00:25;25.83;;;11.70;;
19985;SDS011;10154;52.474;10.768;2024-02-21T08:02:50;25.30;;;11.43;;
19985;SDS011;10154;52.474;10.768;2024-02-21T08:05:16;25.73;;;11.53;;
19985;SDS011;10154;52.474;10.768;2024-02-21T08:07:41;25.33;;;10.90;;
19985;SDS011;10154;52.474;10.768;2024-02-21T08:10:06;28.33;;;9.20;;
19985;SDS011;10154;52.474;10.768;2024-02-21T08:12:33;18.43;;;7.17;;
19985;SDS011;10154;52.474;10.768;2024-02-21T08:14:58;23.60;;;9.03;;
19985;SDS011;10154;52.474;10.768;2024-02-21T08:17:24;24.63;;;10.27;;
19985;SDS011;10154;52.474;10.768;2024-02-21T08:19:49;24.73;;;10.83;;
19985;SDS011;10154;52.474;10.768;2024-02-21T08:22:14;23.53;;;10.67;;
19985;SDS011;10154;52.474;10.768;2024-02-21T08:24:40;24.00;;;10.63;;
19985;SDS011;10154;52.474;10.768;2024-02-21T08:27:05;21.47;;;8.87;;
19985;SDS011;10154;52.474;10.768;2024-02-21T08:29:31;23.23;;;10.17;;
19985;SDS011;10154;52.474;10.768;2024-02-21T08:31:56;25.43;;;9.93;;
19985;SDS011;10154;52.474;10.768;2024-02-21T08:34:21;23.90;;;10.60;;
19985;SDS011;10154;52.474;10.768;2024-02-21T08:36:47;23.20;;;8.03;;
19985;SDS011;10154;52.474;10.768;2024-02-21T08:39:12;20.50;;;8.80;;
19985;SDS011;10154;52.474;10.768;2024-02-21T08:41:41;21.93;;;9.50;;
19985;SDS011;10154;52.474;10.768;2024-02-21T08:44:07;25.73;;;9.27;;
19985;SDS011;10154;52.474;10.768;2024-02-21T08:46:32;18.90;;;8.80;;
19985;SDS011;10154;52.474;10.768;2024-02-21T08:48:57;19.03;;;8.27;;
19985;SDS011;10154;52.474;10.768;2024-02-21T08:51:23;24.40;;;9.30;;
19985;SDS011;10154;52.474;10.768;2024-02-21T08:53:48;20.90;;;9.30;;
19985;SDS011;10154;52.474;10.768;2024-02-21T08:56:14;19.30;;;8.93;;
19985;SDS011;10154;52.474;10.768;2024-02-21T08:58:40;21.27;;;9.57;;
19985;SDS011;10154;52.474;10.768;2024-02-21T09:01:06;21.83;;;9.20;;
19985;SDS011;10154;52.474;10.768;2024-02-21T09:03:37;14.20;;;6.37;;
19985;SDS011;10154;52.474;10.768;2024-02-21T09:06:04;15.57;;;6.37;;
19985;SDS011;10154;52.474;10.768;2024-02-21T09:08:30;17.43;;;6.77;;
19985;SDS011;10154;52.474;10.768;2024-02-21T09:10:55;19.53;;;8.10;;
19985;SDS011;10154;52.474;10.768;2024-02-21T09:13:20;20.73;;;8.13;;
19985;SDS011;10154;52.474;10.768;2024-02-21T09:15:46;23.40;;;8.40;;
19985;SDS011;10154;52.474;10.768;2024-02-21T09:18:12;19.40;;;8.53;;
19985;SDS011;10154;52.474;10.768;2024-02-21T09:20:38;17.97;;;7.77;;
19985;SDS011;10154;52.474;10.768;2024-02-21T09:23:03;16.17;;;8.20;;
19985;SDS011;10154;52.474;10.768;2024-02-21T09:25:28;21.87;;;8.70;;
19985;SDS011;10154;52.474;10.768;2024-02-21T09:27:54;17.90;;;7.17;;
19985;SDS011;10154;52.474;10.768;2024-02-21T09:30:19;15.47;;;6.43;;
19985;SDS011;10154;52.474;10.768;2024-02-21T09:32:45;21.37;;;7.97;;
19985;SDS011;10154;52.474;10.768;2024-02-21T09:35:10;19.13;;;7.20;;
19985;SDS011;10154;52.474;10.768;2024-02-21T09:37:37;17.13;;;7.57;;
19985;SDS011;10154;52.474;10.768;2024-02-21T09:40:03;12.60;;;6.90;;
19985;SDS011;10154;52.474;10.768;2024-02-21T09:42:32;23.37;;;7.47;;
19985;SDS011;10154;52.474;10.768;2024-02-21T09:45:24;15.93;;;6.87;;
19985;SDS011;10154;52.474;10.768;2024-02-21T09:50:26;17.10;;;6.53;;
19985;SDS011;10154;52.474;10.768;2024-02-21T09:52:52;16.73;;;7.07;;
19985;SDS011;10154;52.474;10.768;2024-02-21T09:55:19;17.40;;;6.37;;
19985;SDS011;10154;52.474;10.768;2024-02-21T09:57:44;19.30;;;7.07;;
19985;SDS011;10154;52.474;10.768;2024-02-21T10:00:10;14.93;;;7.00;;
19985;SDS011;10154;52.474;10.768;2024-02-21T10:02:36;15.80;;;6.60;;
19985;SDS011;10154;52.474;10.768;2024-02-21T10:05:02;17.73;;;6.70;;
19985;SDS011;10154;52.474;10.768;2024-02-21T10:07:29;23.13;;;7.10;;
19985;SDS011;10154;52.474;10.768;2024-02-21T10:10:04;15.10;;;6.13;;
19985;SDS011;10154;52.474;10.768;2024-02-21T10:12:29;15.03;;;6.30;;
19985;SDS011;10154;52.474;10.768;2024-02-21T10:15:04;18.83;;;6.90;;
19985;SDS011;10154;52.474;10.768;2024-02-21T10:17:31;19.07;;;5.67;;
19985;SDS011;10154;52.474;10.768;2024-02-21T10:20:06;16.73;;;5.87;;
19985;SDS011;10154;52.474;10.768;2024-02-21T10:22:33;16.13;;;6.00;;
19985;SDS011;10154;52.474;10.768;2024-02-21T10:25:07;12.17;;;4.83;;
19985;SDS011;10154;52.474;10.768;2024-02-21T10:27:36;14.03;;;5.00;;
19985;SDS011;10154;52.474;10.768;2024-02-21T10:30:02;11.53;;;5.10;;
19985;SDS011;10154;52.474;10.768;2024-02-21T10:32:27;13.80;;;4.70;;
19985;SDS011;10154;52.474;10.768;2024-02-21T10:35:04;14.77;;;4.93;;
19985;SDS011;10154;52.474;10.768;2024-02-21T10:37:30;14.97;;;4.90;;
19985;SDS011;10154;52.474;10.768;2024-02-21T10:39:56;11.43;;;4.97;;
19985;SDS011;10154;52.474;10.768;2024-02-21T10:42:22;11.87;;;4.57;;
19985;SDS011;10154;52.474;10.768;2024-02-21T10:44:48;11.57;;;4.17;;
19985;SDS011;10154;52.474;10.768;2024-02-21T10:47:16;11.87;;;3.37;;
19985;SDS011;10154;52.474;10.768;2024-02-21T10:49:46;9.00;;;3.63;;
19985;SDS011;10154;52.474;10.768;2024-02-21T10:57:17;8.97;;;3.77;;
19985;SDS011;10154;52.474;10.768;2024-02-21T10:59:44;9.23;;;3.70;;
19985;SDS011;10154;52.474;10.768;2024-02-21T11:02:10;9.97;;;3.43;;
19985;SDS011;10154;52.474;10.768;2024-02-21T11:04:35;14.90;;;4.03;;
19985;SDS011;10154;52.474;10.768;2024-02-21T11:07:01;11.80;;;3.80;;
19985;SDS011;10154;52.474;10.768;2024-02-21T11:09:31;9.10;;;3.67;;
19985;SDS011;10154;52.474;10.768;2024-02-21T11:12:02;10.70;;;3.70;;
19985;SDS011;10154;52.474;10.768;2024-02-21T11:14:29;9.80;;;3.57;;
19985;SDS011;10154;52.474;10.768;2024-02-21T11:16:57;7.17;;;3.30;;
19985;SDS011;10154;52.474;10.768;2024-02-21T11:19:24;9.73;;;3.50;;
19985;SDS011;10154;52.474;10.768;2024-02-21T11:21:51;11.90;;;3.40;;
19985;SDS011;10154;52.474;10.768;2024-02-21T11:24:29;11.33;;;3.70;;
19985;SDS011;10154;52.474;10.768;2024-02-21T11:26:56;7.00;;;3.20;;
19985;SDS011;10154;52.474;10.768;2024-02-21T11:29:32;7.10;;;2.23;;
19985;SDS011;10154;52.474;10.768;2024-02-21T11:31:57;8.70;;;3.10;;
19985;SDS011;10154;52.474;10.768;2024-02-21T11:34:22;6.00;;;2.77;;
19985;SDS011;10154;52.474;10.768;2024-02-21T11:36:49;11.03;;;2.90;;
19985;SDS011;10154;52.474;10.768;2024-02-21T11:39:22;11.77;;;2.83;;
19985;SDS011;10154;52.474;10.768;2024-02-21T11:42:04;7.53;;;2.53;;
19985;SDS011;10154;52.474;10.768;2024-02-21T11:44:34;8.37;;;2.60;;
19985;SDS011;10154;52.474;10.768;2024-02-21T11:47:00;6.40;;;2.50;;
19985;SDS011;10154;52.474;10.768;2024-02-21T11:49:26;9.27;;;2.80;;
19985;SDS011;10154;52.474;10.768;2024-02-21T11:51:59;7.70;;;2.30;;
19985;SDS011;10154;52.474;10.768;2024-02-21T11:54:26;11.10;;;2.80;;
19985;SDS011;10154;52.474;10.768;2024-02-21T11:56:52;7.93;;;2.40;;
19985;SDS011;10154;52.474;10.768;2024-02-21T11:59:17;10.17;;;2.30;;
19985;SDS011;10154;52.474;10.768;2024-02-21T12:01:43;7.80;;;2.13;;
19985;SDS011;10154;52.474;10.768;2024-02-21T12:04:08;9.27;;;2.50;;
19985;SDS011;10154;52.474;10.768;2024-02-21T12:06:33;8.63;;;3.07;;
19985;SDS011;10154;52.474;10.768;2024-02-21T12:09:00;7.20;;;2.73;;
19985;SDS011;10154;52.474;10.768;2024-02-21T12:11:25;7.30;;;2.30;;
19985;SDS011;10154;52.474;10.768;2024-02-21T12:14:01;9.73;;;3.00;;
19985;SDS011;10154;52.474;10.768;2024-02-21T12:16:28;8.83;;;2.57;;
19985;SDS011;10154;52.474;10.768;2024-02-21T12:18:55;9.87;;;2.90;;
19985;SDS011;10154;52.474;10.768;2024-02-21T12:21:25;7.37;;;2.63;;
19985;SDS011;10154;52.474;10.768;2024-02-21T12:24:14;7.13;;;2.30;;
19985;SDS011;10154;52.474;10.768;2024-02-21T12:26:46;7.70;;;2.30;;
19985;SDS011;10154;52.474;10.768;2024-02-21T12:29:11;7.57;;;2.37;;
19985;SDS011;10154;52.474;10.768;2024-02-21T12:31:40;8.53;;;2.50;;
19985;SDS011;10154;52.474;10.768;2024-02-21T12:34:05;10.53;;;2.60;;
19985;SDS011;10154;52.474;10.768;2024-02-21T12:36:33;5.13;;;1.93;;
19985;SDS011;10154;52.474;10.768;2024-02-21T12:39:01;8.13;;;2.47;;
19985;SDS011;10154;52.474;10.768;2024-02-21T12:41:28;9.23;;;2.40;;
19985;SDS011;10154;52.474;10.768;2024-02-21T12:43:54;8.57;;;2.30;;
19985;SDS011;10154;52.474;10.768;2024-02-21T12:46:21;7.07;;;2.53;;
19985;SDS011;10154;52.474;10.768;2024-02-21T12:48:46;10.97;;;2.30;;
19985;SDS011;10154;52.474;10.768;2024-02-21T12:51:12;13.93;;;2.47;;
19985;SDS011;10154;52.474;10.768;2024-02-21T12:53:37;7.93;;;2.40;;
19985;SDS011;10154;52.474;10.768;2024-02-21T12:56:04;9.10;;;2.40;;
19985;SDS011;10154;52.474;10.768;2024-02-21T12:58:30;8.93;;;2.57;;
19985;SDS011;10154;52.474;10.768;2024-02-21T13:00:56;6.17;;;2.40;;
19985;SDS011;10154;52.474;10.768;2024-02-21T13:03:22;10.33;;;2.60;;
19985;SDS011;10154;52.474;10.768;2024-02-21T13:05:47;7.53;;;2.43;;
19985;SDS011;10154;52.474;10.768;2024-02-21T13:08:13;7.17;;;2.40;;
19985;SDS011;10154;52.474;10.768;2024-02-21T13:10:38;9.63;;;2.73;;
19985;SDS011;10154;52.474;10.768;2024-02-21T13:13:03;8.00;;;2.40;;
19985;SDS011;10154;52.474;10.768;2024-02-21T13:15:29;9.03;;;2.37;;
19985;SDS011;10154;52.474;10.768;2024-02-21T13:17:55;8.97;;;2.40;;
19985;SDS011;10154;52.474;10.768;2024-02-21T13:20:21;5.30;;;2.23;;
19985;SDS011;10154;52.474;10.768;2024-02-21T13:22:47;6.30;;;2.27;;
19985;SDS011;10154;52.474;10.768;2024-02-21T13:25:12;6.27;;;2.47;;
19985;SDS011;10154;52.474;10.768;2024-02-21T13:27:43;8.90;;;2.47;;
19985;SDS011;10154;52.474;10.768;2024-02-21T13:30:08;7.53;;;2.80;;
19985;SDS011;10154;52.474;10.768;2024-02-21T13:32:35;6.70;;;2.60;;
19985;SDS011;10154;52.474;10.768;2024-02-21T13:35:00;7.20;;;2.40;;
19985;SDS011;10154;52.474;10.768;2024-02-21T13:37:28;7.60;;;2.67;;
19985;SDS011;10154;52.474;10.768;2024-02-21T13:39:54;7.37;;;2.70;;
19985;SDS011;10154;52.474;10.768;2024-02-21T13:42:19;7.10;;;2.60;;
19985;SDS011;10154;52.474;10.768;2024-02-21T13:44:45;9.40;;;2.60;;
19985;SDS011;10154;52.474;10.768;2024-02-21T13:47:12;7.83;;;3.10;;
19985;SDS011;10154;52.474;10.768;2024-02-21T13:49:39;11.10;;;3.70;;
19985;SDS011;10154;52.474;10.768;2024-02-21T13:52:05;9.90;;;4.07;;
19985;SDS011;10154;52.474;10.768;2024-02-21T13:54:30;14.67;;;4.13;;
19985;SDS011;10154;52.474;10.768;2024-02-21T13:56:56;8.07;;;3.80;;
19985;SDS011;10154;52.474;10.768;2024-02-21T13:59:21;10.27;;;3.90;;
19985;SDS011;10154;52.474;10.768;2024-02-21T14:01:46;11.63;;;4.83;;
19985;SDS011;10154;52.474;10.768;2024-02-21T14:04:12;9.20;;;4.67;;
19985;SDS011;10154;52.474;10.768;2024-02-21T14:06:37;11.17;;;5.17;;
19985;SDS011;10154;52.474;10.768;2024-02-21T14:09:08;7.90;;;4.80;;
19985;SDS011;10154;52.474;10.768;2024-02-21T14:11:34;12.60;;;5.00;;
19985;SDS011;10154;52.474;10.768;2024-02-21T14:13:59;12.17;;;4.80;;
19985;SDS011;10154;52.474;10.768;2024-02-21T14:16:25;10.23;;;5.00;;
19985;SDS011;10154;52.474;10.768;2024-02-21T14:18:50;10.27;;;5.17;;
19985;SDS011;10154;52.474;10.768;2024-02-21T14:21:15;12.77;;;5.67;;